createdAt,value
2022-09-17T00:00:56.976Z,100.00
2022-09-17T00:03:25.057Z,100.00
2022-09-17T00:05:59.603Z,100.00
2022-09-17T00:08:27.075Z,100.00
2022-09-17T00:10:54.590Z,100.00
2022-09-17T00:13:21.950Z,100.00
2022-09-17T00:15:51.158Z,100.00
2022-09-17T00:18:18.630Z,100.00
2022-09-17T00:20:46.925Z,100.00
2022-09-17T00:23:15.266Z,100.00
2022-09-17T00:25:46.090Z,100.00
2022-09-17T00:28:14.227Z,100.00
2022-09-17T00:30:42.078Z,100.00
2022-09-17T00:33:12.297Z,100.00
2022-09-17T00:35:39.762Z,100.00
2022-09-17T00:38:07.195Z,100.00
2022-09-17T00:40:34.753Z,100.00
2022-09-17T00:43:02.212Z,100.00
2022-09-17T00:45:32.055Z,100.00
2022-09-17T00:48:00.624Z,100.00
2022-09-17T00:50:31.075Z,100.00
2022-09-17T00:53:00.755Z,100.00
2022-09-17T00:55:29.796Z,100.00
2022-09-17T00:57:59.263Z,100.00
2022-09-17T01:00:27.020Z,100.00
2022-09-17T01:02:55.504Z,100.00
2022-09-17T01:05:29.803Z,100.00
2022-09-17T01:08:06.992Z,100.00
2022-09-17T01:10:45.819Z,100.00
2022-09-17T01:13:20.014Z,100.00
2022-09-17T01:15:50.495Z,100.00
2022-09-17T01:18:23.575Z,100.00
2022-09-17T01:21:07.782Z,100.00
2022-09-17T01:23:52.079Z,100.00
2022-09-17T01:26:32.311Z,100.00
2022-09-17T01:29:05.014Z,100.00
2022-09-17T01:31:39.032Z,100.00
2022-09-17T01:34:13.129Z,100.00
2022-09-17T01:36:46.757Z,100.00
2022-09-17T01:39:17.032Z,100.00
2022-09-17T01:41:46.779Z,100.00
2022-09-17T01:44:17.496Z,100.00
2022-09-17T01:46:47.594Z,100.00
2022-09-17T01:49:16.645Z,100.00
2022-09-17T01:51:48.509Z,100.00
2022-09-17T01:54:18.674Z,100.00
2022-09-17T01:56:49.058Z,100.00
2022-09-17T01:59:19.819Z,100.00
2022-09-17T02:01:51.597Z,100.00
2022-09-17T02:04:21.595Z,100.00
2022-09-17T02:06:52.750Z,100.00
2022-09-17T02:09:23.536Z,100.00
2022-09-17T02:11:52.172Z,100.00
2022-09-17T02:14:22.306Z,100.00
2022-09-17T02:16:52.546Z,100.00
2022-09-17T02:19:22.059Z,100.00
2022-09-17T02:21:54.129Z,100.00
2022-09-17T02:24:24.271Z,100.00
2022-09-17T02:26:56.991Z,100.00
2022-09-17T02:29:27.565Z,100.00
2022-09-17T02:31:56.680Z,100.00
2022-09-17T02:34:25.793Z,100.00
2022-09-17T02:36:53.385Z,100.00
2022-09-17T02:39:21.050Z,100.00
2022-09-17T02:41:54.760Z,100.00
2022-09-17T02:44:26.246Z,100.00
2022-09-17T02:47:08.476Z,100.00
2022-09-17T02:49:50.068Z,100.00
2022-09-17T02:52:22.492Z,100.00
2022-09-17T02:54:52.843Z,100.00
2022-09-17T02:57:22.014Z,100.00
2022-09-17T02:59:53.533Z,100.00
2022-09-17T03:02:24.256Z,100.00
2022-09-17T03:04:53.570Z,100.00
2022-09-17T03:07:21.056Z,100.00
2022-09-17T03:09:48.479Z,100.00
2022-09-17T03:12:16.142Z,100.00
2022-09-17T03:14:43.683Z,100.00
2022-09-17T03:17:11.535Z,100.00
2022-09-17T03:19:39.176Z,100.00
2022-09-17T03:22:07.899Z,100.00
2022-09-17T03:24:35.247Z,100.00
2022-09-17T03:27:02.643Z,100.00
2022-09-17T03:29:29.998Z,100.00
2022-09-17T03:31:57.402Z,100.00
2022-09-17T03:34:24.803Z,100.00
2022-09-17T03:36:52.188Z,100.00
2022-09-17T03:39:20.952Z,100.00
2022-09-17T03:41:48.352Z,100.00
2022-09-17T03:44:16.021Z,100.00
2022-09-17T03:46:43.401Z,100.00
2022-09-17T03:49:10.849Z,100.00
2022-09-17T03:51:38.343Z,100.00
2022-09-17T03:54:06.093Z,100.00
2022-09-17T03:56:34.837Z,100.00
2022-09-17T03:59:02.520Z,100.00
2022-09-17T04:01:30.250Z,100.00
2022-09-17T04:03:58.340Z,100.00
2022-09-17T04:06:25.746Z,100.00
2022-09-17T04:08:53.476Z,100.00
2022-09-17T04:11:20.854Z,100.00
2022-09-17T04:13:49.659Z,100.00
2022-09-17T04:16:17.122Z,100.00
2022-09-17T04:18:44.675Z,100.00
2022-09-17T04:21:12.122Z,100.00
2022-09-17T04:23:39.527Z,100.00
2022-09-17T04:26:07.031Z,100.00
2022-09-17T04:28:34.508Z,100.00
2022-09-17T04:31:03.312Z,100.00
2022-09-17T04:33:30.696Z,100.00
2022-09-17T04:35:58.028Z,100.00
2022-09-17T04:38:25.476Z,100.00
2022-09-17T04:40:53.463Z,100.00
2022-09-17T04:43:20.870Z,100.00
2022-09-17T04:45:49.212Z,100.00
2022-09-17T04:48:17.987Z,100.00
2022-09-17T04:50:45.458Z,100.00
2022-09-17T04:53:13.187Z,100.00
2022-09-17T04:55:40.606Z,100.00
2022-09-17T04:58:08.027Z,100.00
2022-09-17T05:00:35.679Z,100.00
2022-09-17T05:03:03.094Z,100.00
2022-09-17T05:05:31.795Z,100.00
2022-09-17T05:07:59.228Z,100.00
2022-09-17T05:10:26.659Z,100.00
2022-09-17T05:12:54.972Z,100.00
2022-09-17T05:15:22.795Z,100.00
2022-09-17T05:17:50.286Z,100.00
2022-09-17T05:20:17.749Z,100.00
2022-09-17T05:22:46.902Z,100.00
2022-09-17T05:25:15.437Z,100.00
2022-09-17T05:27:42.839Z,100.00
2022-09-17T05:30:11.756Z,100.00
2022-09-17T05:32:39.173Z,100.00
2022-09-17T05:35:07.071Z,100.00
2022-09-17T05:37:34.744Z,100.00
2022-09-17T05:40:04.689Z,100.00
2022-09-17T05:42:32.061Z,100.00
2022-09-17T05:44:59.408Z,100.00
2022-09-17T05:47:27.188Z,100.00
2022-09-17T05:49:54.529Z,100.00
2022-09-17T05:52:21.885Z,100.00
2022-09-17T05:54:49.549Z,100.00
2022-09-17T05:57:18.374Z,100.00
2022-09-17T05:59:45.713Z,100.00
2022-09-17T06:02:14.309Z,100.00
2022-09-17T06:04:41.781Z,100.00
2022-09-17T06:07:09.456Z,100.00
2022-09-17T06:09:37.418Z,100.00
2022-09-17T06:12:04.946Z,100.00
2022-09-17T06:14:33.754Z,100.00
2022-09-17T06:17:01.130Z,100.00
2022-09-17T06:19:28.522Z,100.00
2022-09-17T06:21:55.957Z,100.00
2022-09-17T06:24:23.371Z,100.00
2022-09-17T06:26:50.760Z,100.00
2022-09-17T06:29:18.143Z,100.00
2022-09-17T06:31:48.782Z,100.00
2022-09-17T06:34:16.246Z,100.00
2022-09-17T06:36:43.590Z,100.00
2022-09-17T06:39:11.642Z,100.00
2022-09-17T06:41:39.298Z,100.00
2022-09-17T06:44:06.697Z,100.00
2022-09-17T06:46:34.186Z,100.00
2022-09-17T06:49:03.028Z,100.00
2022-09-17T06:51:31.322Z,100.00
2022-09-17T06:53:59.275Z,100.00
2022-09-17T06:56:26.626Z,100.00
2022-09-17T06:58:54.858Z,100.00
2022-09-17T07:01:22.413Z,100.00
2022-09-17T07:03:50.395Z,100.00
2022-09-17T07:06:19.146Z,100.00
2022-09-17T07:08:47.017Z,100.00
2022-09-17T07:11:15.924Z,100.00
2022-09-17T07:13:43.348Z,100.00
2022-09-17T07:16:10.846Z,100.00
2022-09-17T07:18:38.915Z,100.00
2022-09-17T07:21:06.923Z,100.00
2022-09-17T07:23:36.277Z,100.00
2022-09-17T07:26:05.025Z,100.00
2022-09-17T07:28:32.433Z,100.00
2022-09-17T07:31:03.224Z,100.00
2022-09-17T07:33:30.654Z,100.00
2022-09-17T07:35:58.727Z,100.00
2022-09-17T07:38:26.770Z,100.00
2022-09-17T07:40:58.005Z,100.00
2022-09-17T07:43:25.825Z,100.00
2022-09-17T07:45:53.780Z,100.00
2022-09-17T07:48:21.176Z,100.00
2022-09-17T07:50:48.854Z,100.00
2022-09-17T07:53:16.326Z,100.00
2022-09-17T07:55:43.718Z,100.00
2022-09-17T07:58:12.427Z,100.00
2022-09-17T08:00:40.201Z,100.00
2022-09-17T08:03:07.594Z,100.00
2022-09-17T08:05:34.962Z,100.00
2022-09-17T08:08:03.702Z,100.00
2022-09-17T08:10:31.083Z,100.00
2022-09-17T08:12:59.069Z,100.00
2022-09-17T08:15:28.852Z,100.00
2022-09-17T08:17:56.203Z,100.00
2022-09-17T08:20:26.026Z,100.00
2022-09-17T08:22:58.869Z,100.00
2022-09-17T08:25:26.231Z,100.00
2022-09-17T08:27:54.370Z,100.00
2022-09-17T08:30:21.733Z,100.00
2022-09-17T08:32:50.449Z,100.00
2022-09-17T08:35:17.806Z,100.00
2022-09-17T08:37:46.753Z,100.00
2022-09-17T08:40:18.103Z,100.00
2022-09-17T08:42:51.438Z,100.00
2022-09-17T08:45:19.874Z,100.00
2022-09-17T08:47:48.151Z,100.00
2022-09-17T08:50:28.629Z,100.00
2022-09-17T08:53:04.194Z,100.00
2022-09-17T08:55:36.614Z,100.00
2022-09-17T08:58:27.151Z,100.00
2022-09-17T09:00:58.695Z,100.00
2022-09-17T09:03:33.047Z,100.00
2022-09-17T09:06:03.250Z,100.00
2022-09-17T09:08:35.431Z,100.00
2022-09-17T09:11:03.902Z,100.00
2022-09-17T09:13:33.825Z,100.00
2022-09-17T09:16:02.583Z,100.00
2022-09-17T09:18:30.890Z,100.00
2022-09-17T09:21:05.895Z,100.00
2022-09-17T09:23:40.321Z,100.00
2022-09-17T09:26:13.378Z,100.00
2022-09-17T09:28:46.182Z,100.00
2022-09-17T09:31:22.726Z,100.00
2022-09-17T09:33:50.988Z,100.00
2022-09-17T09:36:21.591Z,100.00
2022-09-17T09:38:53.432Z,100.00
2022-09-17T09:41:23.436Z,100.00
2022-09-17T09:44:10.470Z,100.00
2022-09-17T09:46:57.674Z,100.00
2022-09-17T09:49:30.093Z,100.00
2022-09-17T09:52:03.775Z,100.00
2022-09-17T09:54:42.895Z,100.00
2022-09-17T09:57:13.634Z,100.00
2022-09-17T09:59:41.574Z,100.00
2022-09-17T10:02:09.165Z,100.00
2022-09-17T10:04:36.755Z,100.00
2022-09-17T10:07:05.966Z,100.00
2022-09-17T10:09:35.226Z,100.00
2022-09-17T10:12:03.787Z,100.00
2022-09-17T10:14:31.881Z,100.00
2022-09-17T10:17:12.230Z,100.00
2022-09-17T10:19:39.715Z,100.00
2022-09-17T10:22:20.320Z,100.00
2022-09-17T10:24:49.233Z,100.00
2022-09-17T10:27:18.089Z,100.00
2022-09-17T10:29:47.032Z,100.00
2022-09-17T10:32:16.343Z,100.00
2022-09-17T10:34:57.776Z,100.00
2022-09-17T10:37:33.550Z,100.00
2022-09-17T10:40:02.529Z,100.00
2022-09-17T10:42:29.913Z,100.00
2022-09-17T10:44:58.531Z,100.00
2022-09-17T10:47:28.950Z,100.00
2022-09-17T10:49:57.305Z,98.81
2022-09-17T10:52:26.082Z,100.00
2022-09-17T10:55:05.560Z,98.95
2022-09-17T10:57:39.834Z,98.82
2022-09-17T11:00:13.246Z,95.51
2022-09-17T11:03:01.648Z,96.84
2022-09-17T11:05:41.105Z,96.06
2022-09-17T11:08:13.664Z,95.87
2022-09-17T11:10:47.062Z,94.52
2022-09-17T11:13:22.164Z,92.54
2022-09-17T11:15:59.786Z,91.46
2022-09-17T11:18:37.918Z,89.67
2022-09-17T11:21:14.960Z,88.12
2022-09-17T11:23:57.251Z,83.40
2022-09-17T11:26:32.002Z,79.34
2022-09-17T11:29:03.486Z,80.27
2022-09-17T11:31:35.484Z,72.37
2022-09-17T11:34:14.087Z,74.22
2022-09-17T11:36:47.217Z,77.34
2022-09-17T11:39:17.807Z,82.30
2022-09-17T11:41:49.145Z,82.30
2022-09-17T11:44:19.022Z,82.71
2022-09-17T11:46:48.283Z,82.89
2022-09-17T11:49:22.110Z,77.19
2022-09-17T11:51:51.335Z,77.19
2022-09-17T11:54:21.816Z,76.63
2022-09-17T11:56:51.856Z,74.38
2022-09-17T11:59:21.871Z,77.88
2022-09-17T12:01:52.437Z,72.88
2022-09-17T12:04:31.132Z,75.05
2022-09-17T12:07:01.103Z,71.19
2022-09-17T12:09:32.164Z,67.54
2022-09-17T12:12:03.228Z,64.56
2022-09-17T12:14:32.738Z,66.71
2022-09-17T12:17:01.056Z,68.19
2022-09-17T12:19:32.319Z,69.26
2022-09-17T12:22:02.485Z,64.83
2022-09-17T12:24:30.650Z,61.46
2022-09-17T12:27:09.814Z,61.50
2022-09-17T12:29:50.055Z,53.10
2022-09-17T12:32:32.689Z,58.14
2022-09-17T12:35:06.497Z,58.07
2022-09-17T12:37:37.687Z,49.64
2022-09-17T12:40:16.824Z,53.54
2022-09-17T12:42:52.978Z,47.18
2022-09-17T12:45:27.078Z,48.00
2022-09-17T12:48:15.275Z,44.20
2022-09-17T12:50:51.903Z,43.80
2022-09-17T12:53:23.351Z,42.72
2022-09-17T12:56:11.419Z,41.57
2022-09-17T12:58:53.063Z,37.38
2022-09-17T13:01:26.896Z,40.16
2022-09-17T13:03:56.691Z,37.96
2022-09-17T13:06:34.829Z,39.22
2022-09-17T13:09:16.206Z,38.76
2022-09-17T13:12:01.531Z,36.40
2022-09-17T13:14:33.931Z,35.73
2022-09-17T13:17:05.873Z,32.91
2022-09-17T13:19:38.444Z,35.84
2022-09-17T13:22:07.291Z,35.88
2022-09-17T13:24:35.776Z,37.53
2022-09-17T13:27:03.883Z,42.96
2022-09-17T13:29:49.728Z,39.12
2022-09-17T13:32:31.963Z,39.96
2022-09-17T13:35:05.704Z,36.46
2022-09-17T13:37:34.407Z,40.75
2022-09-17T13:40:02.768Z,40.70
2022-09-17T13:42:31.144Z,46.75
2022-09-17T13:45:04.279Z,46.17
2022-09-17T13:47:32.210Z,45.31
2022-09-17T13:50:02.928Z,45.29
2022-09-17T13:52:33.181Z,48.65
2022-09-17T13:55:01.254Z,48.80
2022-09-17T13:57:29.351Z,49.43
2022-09-17T13:59:58.473Z,53.70
2022-09-17T14:02:31.128Z,57.28
2022-09-17T14:05:13.470Z,58.90
2022-09-17T14:07:48.921Z,61.31
2022-09-17T14:10:37.472Z,56.86
2022-09-17T14:13:23.621Z,57.75
2022-09-17T14:16:00.592Z,57.80
2022-09-17T14:18:35.181Z,52.29
2022-09-17T14:21:06.608Z,56.82
2022-09-17T14:23:36.896Z,57.41
2022-09-17T14:26:06.345Z,53.83
2022-09-17T14:28:40.635Z,54.12
2022-09-17T14:31:13.009Z,48.21
2022-09-17T14:33:40.800Z,47.25
2022-09-17T14:36:09.664Z,45.56
2022-09-17T14:38:44.537Z,49.62
2022-09-17T14:41:19.780Z,46.40
2022-09-17T14:43:50.148Z,45.73
2022-09-17T14:46:20.763Z,45.22
2022-09-17T14:48:48.379Z,43.17
2022-09-17T14:51:26.245Z,41.70
2022-09-17T14:54:15.439Z,40.97
2022-09-17T14:56:47.272Z,40.25
2022-09-17T14:59:20.122Z,39.84
2022-09-17T15:01:48.892Z,38.76
2022-09-17T15:04:22.000Z,38.91
2022-09-17T15:06:49.906Z,39.26
2022-09-17T15:09:19.403Z,39.60
2022-09-17T15:11:48.887Z,40.77
2022-09-17T15:14:18.361Z,40.50
2022-09-17T15:16:49.447Z,42.53
2022-09-17T15:19:21.390Z,43.05
2022-09-17T15:21:50.175Z,46.50
2022-09-17T15:24:22.399Z,46.87
2022-09-17T15:26:52.209Z,49.27
2022-09-17T15:29:21.185Z,51.19
2022-09-17T15:31:48.773Z,51.73
2022-09-17T15:34:16.271Z,54.61
2022-09-17T15:37:03.899Z,55.81
2022-09-17T15:39:38.561Z,57.35
2022-09-17T15:42:05.986Z,56.41
2022-09-17T15:44:33.641Z,56.10
2022-09-17T15:47:25.330Z,55.66
2022-09-17T15:50:05.361Z,55.42
2022-09-17T15:52:35.259Z,54.49
2022-09-17T15:55:04.159Z,52.61
2022-09-17T15:57:32.714Z,54.41
2022-09-17T16:00:07.099Z,55.00
2022-09-17T16:02:34.599Z,56.44
2022-09-17T16:05:17.017Z,55.06
2022-09-17T16:07:45.372Z,56.55
2022-09-17T16:10:15.178Z,54.91
2022-09-17T16:12:42.705Z,54.57
2022-09-17T16:15:10.810Z,58.15
2022-09-17T16:17:45.131Z,57.23
2022-09-17T16:20:16.872Z,57.71
2022-09-17T16:22:44.711Z,57.02
2022-09-17T16:25:12.165Z,58.33
2022-09-17T16:27:51.275Z,63.81
2022-09-17T16:30:19.515Z,67.86
2022-09-17T16:32:47.168Z,72.16
2022-09-17T16:35:17.227Z,75.67
2022-09-17T16:37:45.120Z,79.02
2022-09-17T16:40:13.529Z,80.80
2022-09-17T16:42:40.999Z,83.16
2022-09-17T16:45:10.340Z,86.40
2022-09-17T16:47:38.727Z,88.87
2022-09-17T16:50:07.257Z,90.03
2022-09-17T16:52:34.701Z,91.37
2022-09-17T16:55:02.571Z,93.17
2022-09-17T16:57:31.207Z,96.48
2022-09-17T16:59:58.622Z,99.38
2022-09-17T17:02:27.355Z,99.37
2022-09-17T17:04:55.238Z,97.96
2022-09-17T17:07:22.603Z,97.34
2022-09-17T17:09:50.157Z,99.61
2022-09-17T17:12:17.666Z,99.58
2022-09-17T17:14:49.871Z,99.52
2022-09-17T17:17:18.135Z,99.56
2022-09-17T17:19:47.004Z,98.02
2022-09-17T17:22:14.859Z,98.37
2022-09-17T17:24:42.507Z,98.96
2022-09-17T17:27:10.031Z,99.52
2022-09-17T17:29:37.374Z,99.41
2022-09-17T17:32:05.459Z,99.62
2022-09-17T17:34:32.882Z,100.00
2022-09-17T17:37:01.801Z,100.00
2022-09-17T17:39:29.204Z,100.00
2022-09-17T17:41:56.592Z,100.00
2022-09-17T17:44:23.993Z,100.00
2022-09-17T17:46:51.419Z,100.00
2022-09-17T17:49:18.900Z,100.00
2022-09-17T17:51:46.466Z,100.00
2022-09-17T17:54:15.254Z,100.00
2022-09-17T17:56:42.656Z,100.00
2022-09-17T17:59:10.094Z,100.00
2022-09-17T18:01:38.401Z,100.00
2022-09-17T18:04:07.780Z,100.00
2022-09-17T18:06:35.377Z,100.00
2022-09-17T18:09:03.203Z,100.00
2022-09-17T18:11:31.991Z,100.00
2022-09-17T18:14:00.788Z,100.00
2022-09-17T18:16:28.915Z,100.00
2022-09-17T18:18:57.383Z,100.00
2022-09-17T18:21:25.483Z,100.00
2022-09-17T18:23:53.244Z,100.00
2022-09-17T18:26:21.681Z,100.00
2022-09-17T18:28:50.640Z,100.00
2022-09-17T18:31:21.120Z,100.00
2022-09-17T18:33:48.690Z,100.00
2022-09-17T18:36:16.155Z,100.00
2022-09-17T18:38:43.506Z,100.00
2022-09-17T18:41:12.304Z,100.00
2022-09-17T18:43:39.797Z,100.00
2022-09-17T18:46:08.626Z,100.00
2022-09-17T18:48:36.808Z,100.00
2022-09-17T18:51:05.430Z,100.00
2022-09-17T18:53:36.082Z,100.00
2022-09-17T18:56:05.153Z,100.00
2022-09-17T18:58:32.520Z,100.00
2022-09-17T19:00:59.947Z,100.00
2022-09-17T19:03:31.708Z,100.00
2022-09-17T19:05:59.823Z,100.00
2022-09-17T19:08:27.417Z,100.00
2022-09-17T19:10:54.985Z,100.00
2022-09-17T19:13:22.639Z,100.00
2022-09-17T19:15:50.063Z,100.00
2022-09-17T19:18:17.563Z,100.00
2022-09-17T19:20:46.234Z,100.00
2022-09-17T19:23:13.561Z,100.00
2022-09-17T19:25:40.919Z,100.00
2022-09-17T19:28:08.293Z,100.00
2022-09-17T19:30:36.339Z,100.00
2022-09-17T19:33:04.674Z,100.00
2022-09-17T19:35:32.110Z,100.00
2022-09-17T19:38:01.102Z,100.00
2022-09-17T19:40:28.724Z,100.00
2022-09-17T19:42:57.831Z,100.00
2022-09-17T19:45:25.630Z,100.00
2022-09-17T19:47:56.334Z,100.00
2022-09-17T19:50:23.735Z,100.00
2022-09-17T19:52:51.150Z,100.00
2022-09-17T19:55:21.924Z,100.00
2022-09-17T19:57:49.277Z,100.00
2022-09-17T20:00:17.149Z,100.00
2022-09-17T20:02:44.616Z,100.00
2022-09-17T20:05:12.230Z,100.00
2022-09-17T20:07:39.721Z,100.00
2022-09-17T20:10:07.653Z,100.00
2022-09-17T20:12:36.374Z,100.00
2022-09-17T20:15:03.791Z,100.00
2022-09-17T20:17:31.214Z,100.00
2022-09-17T20:19:58.546Z,100.00
2022-09-17T20:22:26.020Z,100.00
2022-09-17T20:24:53.376Z,100.00
2022-09-17T20:27:20.771Z,100.00
2022-09-17T20:29:49.526Z,100.00
2022-09-17T20:32:17.013Z,100.00
2022-09-17T20:34:44.370Z,100.00
2022-09-17T20:37:13.449Z,100.00
2022-09-17T20:39:41.268Z,100.00
2022-09-17T20:42:08.887Z,100.00
2022-09-17T20:44:36.235Z,100.00
2022-09-17T20:47:05.534Z,100.00
2022-09-17T20:49:32.996Z,100.00
2022-09-17T20:52:00.363Z,100.00
2022-09-17T20:54:27.698Z,100.00
2022-09-17T20:56:55.056Z,100.00
2022-09-17T20:59:24.969Z,100.00
2022-09-17T21:01:53.585Z,100.00
2022-09-17T21:04:23.963Z,100.00
2022-09-17T21:06:52.709Z,100.00
2022-09-17T21:09:20.070Z,100.00
2022-09-17T21:11:48.271Z,100.00
2022-09-17T21:14:17.281Z,100.00
2022-09-17T21:16:45.206Z,100.00
2022-09-17T21:19:13.186Z,100.00
2022-09-17T21:21:41.850Z,100.00
2022-09-17T21:24:10.259Z,100.00
2022-09-17T21:26:37.715Z,100.00
2022-09-17T21:29:05.135Z,100.00
2022-09-17T21:31:33.783Z,100.00
2022-09-17T21:34:01.815Z,100.00
2022-09-17T21:36:30.214Z,100.00
2022-09-17T21:38:59.804Z,100.00
2022-09-17T21:41:27.783Z,100.00
2022-09-17T21:43:55.268Z,100.00
2022-09-17T21:46:23.274Z,100.00
2022-09-17T21:48:51.625Z,100.00
2022-09-17T21:51:20.168Z,100.00
2022-09-17T21:53:50.779Z,100.00
2022-09-17T21:56:20.177Z,100.00
2022-09-17T21:58:50.871Z,100.00
2022-09-17T22:01:19.326Z,100.00
2022-09-17T22:03:46.826Z,100.00
2022-09-17T22:06:15.889Z,100.00
2022-09-17T22:08:43.916Z,100.00
2022-09-17T22:11:12.235Z,100.00
2022-09-17T22:13:41.407Z,100.00
2022-09-17T22:16:10.315Z,100.00
2022-09-17T22:18:38.715Z,100.00
2022-09-17T22:21:13.162Z,100.00
2022-09-17T22:23:40.690Z,100.00
2022-09-17T22:26:08.615Z,100.00
2022-09-17T22:28:36.169Z,100.00
2022-09-17T22:31:06.210Z,100.00
2022-09-17T22:33:34.200Z,100.00
2022-09-17T22:36:04.977Z,100.00
2022-09-17T22:38:32.435Z,100.00
2022-09-17T22:41:03.730Z,100.00
2022-09-17T22:43:31.095Z,100.00
2022-09-17T22:45:58.473Z,100.00
2022-09-17T22:48:27.180Z,100.00
2022-09-17T22:50:54.631Z,100.00
2022-09-17T22:53:22.226Z,100.00
2022-09-17T22:55:56.314Z,100.00
2022-09-17T22:58:24.407Z,100.00
2022-09-17T23:00:52.533Z,100.00
2022-09-17T23:03:20.052Z,100.00
2022-09-17T23:05:48.843Z,100.00
2022-09-17T23:08:16.199Z,100.00
2022-09-17T23:10:44.138Z,100.00
2022-09-17T23:13:11.781Z,100.00
2022-09-17T23:15:39.642Z,100.00
2022-09-17T23:18:07.770Z,100.00
2022-09-17T23:20:35.399Z,100.00
2022-09-17T23:23:04.467Z,100.00
2022-09-17T23:25:31.805Z,100.00
2022-09-17T23:27:59.659Z,100.00
2022-09-17T23:30:28.157Z,100.00
2022-09-17T23:32:55.948Z,100.00
2022-09-17T23:35:23.788Z,100.00
2022-09-17T23:37:51.142Z,100.00
2022-09-17T23:40:21.911Z,100.00
2022-09-17T23:42:49.428Z,100.00
2022-09-17T23:45:16.909Z,100.00
2022-09-17T23:47:44.351Z,100.00
2022-09-17T23:50:11.786Z,100.00
2022-09-17T23:52:39.193Z,100.00
2022-09-17T23:55:07.268Z,100.00
2022-09-17T23:57:35.930Z,100.00
